sensor_id;sensor_type;location;lat;lon;timestamp;P1;durP1;ratioP1;P2;durP2;ratioP2
74967;SDS011;63523;51.880;12.630;2023-04-25T00:02:19;6.27;;;2.50;;
74967;SDS011;63523;51.880;12.630;2023-04-25T00:04:44;5.73;;;2.47;;
74967;SDS011;63523;51.880;12.630;2023-04-25T00:07:10;6.53;;;2.70;;
74967;SDS011;63523;51.880;12.630;2023-04-25T00:09:35;6.40;;;2.40;;
74967;SDS011;63523;51.880;12.630;2023-04-25T00:12:00;6.77;;;2.23;;
74967;SDS011;63523;51.880;12.630;2023-04-25T00:14:26;7.20;;;2.33;;
74967;SDS011;63523;51.880;12.630;2023-04-25T00:16:52;6.20;;;2.42;;
74967;SDS011;63523;51.880;12.630;2023-04-25T00:19:18;7.05;;;2.30;;
74967;SDS011;63523;51.880;12.630;2023-04-25T00:21:44;6.30;;;2.30;;
74967;SDS011;63523;51.880;12.630;2023-04-25T00:24:10;7.78;;;2.50;;
74967;SDS011;63523;51.880;12.630;2023-04-25T00:26:35;7.07;;;2.77;;
74967;SDS011;63523;51.880;12.630;2023-04-25T00:29:01;8.70;;;2.50;;
74967;SDS011;63523;51.880;12.630;2023-04-25T00:31:26;6.43;;;2.50;;
74967;SDS011;63523;51.880;12.630;2023-04-25T00:33:52;6.97;;;2.80;;
74967;SDS011;63523;51.880;12.630;2023-04-25T00:36:18;6.10;;;2.53;;
74967;SDS011;63523;51.880;12.630;2023-04-25T00:38:43;6.10;;;2.40;;
74967;SDS011;63523;51.880;12.630;2023-04-25T00:41:08;5.83;;;2.23;;
74967;SDS011;63523;51.880;12.630;2023-04-25T00:43:34;6.03;;;2.50;;
74967;SDS011;63523;51.880;12.630;2023-04-25T00:46:01;5.55;;;2.35;;
74967;SDS011;63523;51.880;12.630;2023-04-25T00:48:27;5.70;;;2.40;;
74967;SDS011;63523;51.880;12.630;2023-04-25T00:50:53;5.97;;;2.33;;
74967;SDS011;63523;51.880;12.630;2023-04-25T00:53:20;6.77;;;2.30;;
74967;SDS011;63523;51.880;12.630;2023-04-25T00:55:46;8.50;;;2.53;;
74967;SDS011;63523;51.880;12.630;2023-04-25T00:58:12;6.70;;;2.45;;
74967;SDS011;63523;51.880;12.630;2023-04-25T01:00:37;6.10;;;2.27;;
74967;SDS011;63523;51.880;12.630;2023-04-25T01:03:05;6.03;;;2.33;;
74967;SDS011;63523;51.880;12.630;2023-04-25T01:05:30;7.30;;;2.43;;
74967;SDS011;63523;51.880;12.630;2023-04-25T01:07:55;6.53;;;2.40;;
74967;SDS011;63523;51.880;12.630;2023-04-25T01:10:21;5.15;;;2.10;;
74967;SDS011;63523;51.880;12.630;2023-04-25T01:12:46;5.60;;;2.20;;
74967;SDS011;63523;51.880;12.630;2023-04-25T01:15:12;6.13;;;2.10;;
74967;SDS011;63523;51.880;12.630;2023-04-25T01:17:37;7.27;;;2.03;;
74967;SDS011;63523;51.880;12.630;2023-04-25T01:20:04;5.50;;;2.17;;
74967;SDS011;63523;51.880;12.630;2023-04-25T01:22:31;6.47;;;2.35;;
74967;SDS011;63523;51.880;12.630;2023-04-25T01:24:56;5.43;;;2.08;;
74967;SDS011;63523;51.880;12.630;2023-04-25T01:27:22;6.35;;;2.55;;
74967;SDS011;63523;51.880;12.630;2023-04-25T01:29:48;5.70;;;2.37;;
74967;SDS011;63523;51.880;12.630;2023-04-25T01:32:14;7.10;;;2.27;;
74967;SDS011;63523;51.880;12.630;2023-04-25T01:34:40;6.55;;;2.50;;
74967;SDS011;63523;51.880;12.630;2023-04-25T01:37:05;5.73;;;2.00;;
74967;SDS011;63523;51.880;12.630;2023-04-25T01:39:30;6.43;;;2.27;;
74967;SDS011;63523;51.880;12.630;2023-04-25T01:41:56;8.20;;;2.60;;
74967;SDS011;63523;51.880;12.630;2023-04-25T01:44:23;5.80;;;2.22;;
74967;SDS011;63523;51.880;12.630;2023-04-25T01:46:48;5.73;;;2.30;;
74967;SDS011;63523;51.880;12.630;2023-04-25T01:49:13;6.60;;;2.73;;
74967;SDS011;63523;51.880;12.630;2023-04-25T01:51:39;6.07;;;2.30;;
74967;SDS011;63523;51.880;12.630;2023-04-25T01:54:05;7.95;;;2.35;;
74967;SDS011;63523;51.880;12.630;2023-04-25T01:56:30;5.47;;;2.20;;
74967;SDS011;63523;51.880;12.630;2023-04-25T01:58:57;6.55;;;2.33;;
74967;SDS011;63523;51.880;12.630;2023-04-25T02:01:23;7.68;;;2.42;;
74967;SDS011;63523;51.880;12.630;2023-04-25T02:03:48;6.47;;;2.40;;
74967;SDS011;63523;51.880;12.630;2023-04-25T02:06:13;7.40;;;2.47;;
74967;SDS011;63523;51.880;12.630;2023-04-25T02:08:38;5.27;;;2.10;;
74967;SDS011;63523;51.880;12.630;2023-04-25T02:11:04;6.57;;;2.30;;
74967;SDS011;63523;51.880;12.630;2023-04-25T02:13:29;7.90;;;2.17;;
74967;SDS011;63523;51.880;12.630;2023-04-25T02:15:54;6.27;;;2.17;;
74967;SDS011;63523;51.880;12.630;2023-04-25T02:18:20;7.73;;;2.20;;
74967;SDS011;63523;51.880;12.630;2023-04-25T02:20:46;6.20;;;2.30;;
74967;SDS011;63523;51.880;12.630;2023-04-25T02:23:11;5.80;;;2.30;;
74967;SDS011;63523;51.880;12.630;2023-04-25T02:25:37;9.40;;;2.07;;
74967;SDS011;63523;51.880;12.630;2023-04-25T02:28:02;7.73;;;2.37;;
74967;SDS011;63523;51.880;12.630;2023-04-25T02:30:28;5.50;;;2.30;;
74967;SDS011;63523;51.880;12.630;2023-04-25T02:32:53;7.97;;;2.67;;
74967;SDS011;63523;51.880;12.630;2023-04-25T02:35:18;5.13;;;2.17;;
74967;SDS011;63523;51.880;12.630;2023-04-25T02:37:44;7.55;;;2.53;;
74967;SDS011;63523;51.880;12.630;2023-04-25T02:40:09;6.00;;;2.23;;
74967;SDS011;63523;51.880;12.630;2023-04-25T02:42:35;5.57;;;2.30;;
74967;SDS011;63523;51.880;12.630;2023-04-25T02:45:00;7.53;;;1.97;;
74967;SDS011;63523;51.880;12.630;2023-04-25T02:47:27;6.32;;;2.00;;
74967;SDS011;63523;51.880;12.630;2023-04-25T02:49:52;6.53;;;2.40;;
74967;SDS011;63523;51.880;12.630;2023-04-25T02:52:17;6.63;;;2.10;;
74967;SDS011;63523;51.880;12.630;2023-04-25T02:54:42;5.60;;;2.10;;
74967;SDS011;63523;51.880;12.630;2023-04-25T02:57:08;9.30;;;2.53;;
74967;SDS011;63523;51.880;12.630;2023-04-25T02:59:33;6.07;;;2.00;;
74967;SDS011;63523;51.880;12.630;2023-04-25T03:01:59;5.83;;;2.10;;
74967;SDS011;63523;51.880;12.630;2023-04-25T03:04:24;7.13;;;2.40;;
74967;SDS011;63523;51.880;12.630;2023-04-25T03:06:50;7.05;;;2.30;;
74967;SDS011;63523;51.880;12.630;2023-04-25T03:09:15;5.63;;;2.10;;
74967;SDS011;63523;51.880;12.630;2023-04-25T03:11:41;5.90;;;2.30;;
74967;SDS011;63523;51.880;12.630;2023-04-25T03:14:06;6.43;;;2.30;;
74967;SDS011;63523;51.880;12.630;2023-04-25T03:16:32;5.53;;;2.30;;
74967;SDS011;63523;51.880;12.630;2023-04-25T03:18:57;5.90;;;2.30;;
74967;SDS011;63523;51.880;12.630;2023-04-25T03:21:22;6.00;;;2.33;;
74967;SDS011;63523;51.880;12.630;2023-04-25T03:23:48;5.93;;;2.30;;
74967;SDS011;63523;51.880;12.630;2023-04-25T03:26:13;7.27;;;2.10;;
74967;SDS011;63523;51.880;12.630;2023-04-25T03:28:39;5.80;;;2.20;;
74967;SDS011;63523;51.880;12.630;2023-04-25T03:31:05;6.20;;;2.28;;
74967;SDS011;63523;51.880;12.630;2023-04-25T03:33:30;7.43;;;2.03;;
74967;SDS011;63523;51.880;12.630;2023-04-25T03:35:56;8.23;;;2.13;;
74967;SDS011;63523;51.880;12.630;2023-04-25T03:38:21;6.67;;;2.27;;
74967;SDS011;63523;51.880;12.630;2023-04-25T03:40:46;6.13;;;2.47;;
74967;SDS011;63523;51.880;12.630;2023-04-25T03:43:11;5.87;;;2.47;;
74967;SDS011;63523;51.880;12.630;2023-04-25T03:45:37;6.67;;;2.13;;
74967;SDS011;63523;51.880;12.630;2023-04-25T03:48:02;5.80;;;2.20;;
74967;SDS011;63523;51.880;12.630;2023-04-25T03:50:27;7.20;;;2.63;;
74967;SDS011;63523;51.880;12.630;2023-04-25T03:52:53;7.40;;;2.47;;
74967;SDS011;63523;51.880;12.630;2023-04-25T03:55:18;6.47;;;2.27;;
74967;SDS011;63523;51.880;12.630;2023-04-25T03:57:43;6.73;;;2.60;;
74967;SDS011;63523;51.880;12.630;2023-04-25T04:00:09;7.23;;;2.20;;
74967;SDS011;63523;51.880;12.630;2023-04-25T04:02:34;5.72;;;2.10;;
74967;SDS011;63523;51.880;12.630;2023-04-25T04:05:01;7.68;;;2.10;;
74967;SDS011;63523;51.880;12.630;2023-04-25T04:07:27;5.78;;;2.20;;
74967;SDS011;63523;51.880;12.630;2023-04-25T04:09:52;4.90;;;1.80;;
74967;SDS011;63523;51.880;12.630;2023-04-25T04:12:18;5.50;;;1.83;;
74967;SDS011;63523;51.880;12.630;2023-04-25T04:14:43;6.73;;;2.40;;
74967;SDS011;63523;51.880;12.630;2023-04-25T04:17:08;7.33;;;2.00;;
74967;SDS011;63523;51.880;12.630;2023-04-25T04:19:33;5.17;;;1.80;;
74967;SDS011;63523;51.880;12.630;2023-04-25T04:21:59;7.37;;;2.13;;
74967;SDS011;63523;51.880;12.630;2023-04-25T04:24:24;7.00;;;2.30;;
74967;SDS011;63523;51.880;12.630;2023-04-25T04:26:50;6.90;;;2.30;;
74967;SDS011;63523;51.880;12.630;2023-04-25T04:29:15;7.15;;;2.20;;
74967;SDS011;63523;51.880;12.630;2023-04-25T04:31:46;6.70;;;2.10;;
74967;SDS011;63523;51.880;12.630;2023-04-25T04:34:16;6.38;;;2.00;;
74967;SDS011;63523;51.880;12.630;2023-04-25T04:36:42;5.47;;;1.90;;
74967;SDS011;63523;51.880;12.630;2023-04-25T04:39:10;9.88;;;2.22;;
74967;SDS011;63523;51.880;12.630;2023-04-25T04:41:35;5.33;;;1.73;;
74967;SDS011;63523;51.880;12.630;2023-04-25T04:44:00;5.33;;;1.80;;
74967;SDS011;63523;51.880;12.630;2023-04-25T04:46:26;6.63;;;1.90;;
74967;SDS011;63523;51.880;12.630;2023-04-25T04:48:52;5.63;;;2.08;;
74967;SDS011;63523;51.880;12.630;2023-04-25T04:51:18;5.47;;;1.87;;
74967;SDS011;63523;51.880;12.630;2023-04-25T04:53:43;6.40;;;1.80;;
74967;SDS011;63523;51.880;12.630;2023-04-25T04:56:09;6.73;;;1.80;;
74967;SDS011;63523;51.880;12.630;2023-04-25T04:58:34;4.80;;;1.60;;
74967;SDS011;63523;51.880;12.630;2023-04-25T05:01:01;7.90;;;1.70;;
74967;SDS011;63523;51.880;12.630;2023-04-25T05:03:26;7.00;;;2.30;;
74967;SDS011;63523;51.880;12.630;2023-04-25T05:05:52;7.75;;;2.00;;
74967;SDS011;63523;51.880;12.630;2023-04-25T05:08:17;6.63;;;1.70;;
74967;SDS011;63523;51.880;12.630;2023-04-25T05:10:42;6.67;;;1.87;;
74967;SDS011;63523;51.880;12.630;2023-04-25T05:13:07;7.07;;;1.83;;
74967;SDS011;63523;51.880;12.630;2023-04-25T05:15:33;7.57;;;1.97;;
74967;SDS011;63523;51.880;12.630;2023-04-25T05:17:58;8.27;;;2.10;;
74967;SDS011;63523;51.880;12.630;2023-04-25T05:20:23;8.87;;;1.80;;
74967;SDS011;63523;51.880;12.630;2023-04-25T05:22:49;6.17;;;1.83;;
74967;SDS011;63523;51.880;12.630;2023-04-25T05:25:14;8.63;;;2.43;;
74967;SDS011;63523;51.880;12.630;2023-04-25T05:27:39;8.20;;;2.00;;
74967;SDS011;63523;51.880;12.630;2023-04-25T05:30:05;7.37;;;2.40;;
74967;SDS011;63523;51.880;12.630;2023-04-25T05:32:31;8.07;;;2.50;;
74967;SDS011;63523;51.880;12.630;2023-04-25T05:34:56;6.70;;;2.03;;
74967;SDS011;63523;51.880;12.630;2023-04-25T05:37:21;9.20;;;2.27;;
74967;SDS011;63523;51.880;12.630;2023-04-25T05:39:46;7.27;;;2.53;;
74967;SDS011;63523;51.880;12.630;2023-04-25T05:42:12;9.83;;;3.50;;
74967;SDS011;63523;51.880;12.630;2023-04-25T05:44:37;11.97;;;3.10;;
74967;SDS011;63523;51.880;12.630;2023-04-25T05:47:02;13.43;;;4.70;;
74967;SDS011;63523;51.880;12.630;2023-04-25T05:49:29;13.27;;;4.80;;
74967;SDS011;63523;51.880;12.630;2023-04-25T05:51:54;14.27;;;3.87;;
74967;SDS011;63523;51.880;12.630;2023-04-25T05:54:20;9.97;;;3.47;;
74967;SDS011;63523;51.880;12.630;2023-04-25T05:56:45;10.57;;;3.80;;
74967;SDS011;63523;51.880;12.630;2023-04-25T05:59:10;13.50;;;3.53;;
74967;SDS011;63523;51.880;12.630;2023-04-25T06:01:35;11.60;;;4.13;;
74967;SDS011;63523;51.880;12.630;2023-04-25T06:04:01;14.77;;;5.40;;
74967;SDS011;63523;51.880;12.630;2023-04-25T06:06:26;13.37;;;5.03;;
74967;SDS011;63523;51.880;12.630;2023-04-25T06:08:52;13.52;;;4.60;;
74967;SDS011;63523;51.880;12.630;2023-04-25T06:11:17;11.03;;;3.63;;
74967;SDS011;63523;51.880;12.630;2023-04-25T06:13:43;11.03;;;3.27;;
74967;SDS011;63523;51.880;12.630;2023-04-25T06:16:08;9.43;;;3.40;;
74967;SDS011;63523;51.880;12.630;2023-04-25T06:18:33;14.10;;;4.07;;
74967;SDS011;63523;51.880;12.630;2023-04-25T06:20:58;11.20;;;4.37;;
74967;SDS011;63523;51.880;12.630;2023-04-25T06:23:24;13.63;;;4.23;;
74967;SDS011;63523;51.880;12.630;2023-04-25T06:25:49;14.30;;;4.13;;
74967;SDS011;63523;51.880;12.630;2023-04-25T06:28:14;12.10;;;3.83;;
74967;SDS011;63523;51.880;12.630;2023-04-25T06:30:40;11.20;;;3.97;;
74967;SDS011;63523;51.880;12.630;2023-04-25T06:33:05;13.60;;;4.10;;
74967;SDS011;63523;51.880;12.630;2023-04-25T06:35:30;11.37;;;4.00;;
74967;SDS011;63523;51.880;12.630;2023-04-25T06:37:56;9.73;;;3.13;;
74967;SDS011;63523;51.880;12.630;2023-04-25T06:40:21;12.53;;;4.17;;
74967;SDS011;63523;51.880;12.630;2023-04-25T06:42:46;11.07;;;3.70;;
74967;SDS011;63523;51.880;12.630;2023-04-25T06:45:11;10.90;;;3.90;;
74967;SDS011;63523;51.880;12.630;2023-04-25T06:47:37;11.30;;;3.50;;
74967;SDS011;63523;51.880;12.630;2023-04-25T06:50:02;10.40;;;3.17;;
74967;SDS011;63523;51.880;12.630;2023-04-25T06:52:28;12.97;;;4.80;;
74967;SDS011;63523;51.880;12.630;2023-04-25T06:54:53;13.40;;;5.47;;
74967;SDS011;63523;51.880;12.630;2023-04-25T06:57:18;12.23;;;4.20;;
74967;SDS011;63523;51.880;12.630;2023-04-25T06:59:43;16.37;;;5.90;;
74967;SDS011;63523;51.880;12.630;2023-04-25T07:02:09;15.30;;;5.40;;
74967;SDS011;63523;51.880;12.630;2023-04-25T07:04:34;9.33;;;3.10;;
74967;SDS011;63523;51.880;12.630;2023-04-25T07:06:59;10.00;;;3.50;;
74967;SDS011;63523;51.880;12.630;2023-04-25T07:09:27;11.10;;;4.00;;
74967;SDS011;63523;51.880;12.630;2023-04-25T07:11:52;10.63;;;3.80;;
74967;SDS011;63523;51.880;12.630;2023-04-25T07:14:18;8.23;;;3.40;;
74967;SDS011;63523;51.880;12.630;2023-04-25T07:16:43;12.17;;;3.80;;
74967;SDS011;63523;51.880;12.630;2023-04-25T07:19:08;12.93;;;4.50;;
74967;SDS011;63523;51.880;12.630;2023-04-25T07:21:33;14.27;;;4.87;;
74967;SDS011;63523;51.880;12.630;2023-04-25T07:23:59;11.17;;;4.50;;
74967;SDS011;63523;51.880;12.630;2023-04-25T07:26:24;14.60;;;4.97;;
74967;SDS011;63523;51.880;12.630;2023-04-25T07:28:49;12.70;;;4.50;;
74967;SDS011;63523;51.880;12.630;2023-04-25T07:31:16;9.25;;;3.35;;
74967;SDS011;63523;51.880;12.630;2023-04-25T07:33:43;11.55;;;3.40;;
74967;SDS011;63523;51.880;12.630;2023-04-25T07:36:10;11.90;;;4.43;;
74967;SDS011;63523;51.880;12.630;2023-04-25T07:38:35;10.23;;;3.20;;
74967;SDS011;63523;51.880;12.630;2023-04-25T07:41:00;7.53;;;2.67;;
74967;SDS011;63523;51.880;12.630;2023-04-25T07:43:25;9.20;;;2.80;;
74967;SDS011;63523;51.880;12.630;2023-04-25T07:45:51;7.83;;;2.43;;
74967;SDS011;63523;51.880;12.630;2023-04-25T07:48:16;9.17;;;2.70;;
74967;SDS011;63523;51.880;12.630;2023-04-25T07:50:45;6.57;;;2.47;;
74967;SDS011;63523;51.880;12.630;2023-04-25T07:53:11;8.73;;;1.90;;
74967;SDS011;63523;51.880;12.630;2023-04-25T07:55:36;6.60;;;1.57;;
74967;SDS011;63523;51.880;12.630;2023-04-25T07:58:04;6.82;;;1.38;;
74967;SDS011;63523;51.880;12.630;2023-04-25T08:00:30;6.37;;;1.10;;
74967;SDS011;63523;51.880;12.630;2023-04-25T08:02:55;4.67;;;1.17;;
74967;SDS011;63523;51.880;12.630;2023-04-25T08:05:20;6.00;;;1.17;;
74967;SDS011;63523;51.880;12.630;2023-04-25T08:07:46;4.67;;;1.03;;
74967;SDS011;63523;51.880;12.630;2023-04-25T08:10:11;9.65;;;0.82;;
74967;SDS011;63523;51.880;12.630;2023-04-25T08:12:36;7.30;;;1.00;;
74967;SDS011;63523;51.880;12.630;2023-04-25T08:15:02;6.67;;;0.90;;
74967;SDS011;63523;51.880;12.630;2023-04-25T08:17:27;5.93;;;0.93;;
74967;SDS011;63523;51.880;12.630;2023-04-25T08:19:52;8.13;;;1.20;;
74967;SDS011;63523;51.880;12.630;2023-04-25T08:22:18;12.57;;;1.20;;
74967;SDS011;63523;51.880;12.630;2023-04-25T08:24:43;6.93;;;0.90;;
74967;SDS011;63523;51.880;12.630;2023-04-25T08:27:08;8.33;;;0.97;;
74967;SDS011;63523;51.880;12.630;2023-04-25T08:29:34;4.17;;;0.67;;
74967;SDS011;63523;51.880;12.630;2023-04-25T08:32:00;5.72;;;0.90;;
74967;SDS011;63523;51.880;12.630;2023-04-25T08:34:25;7.27;;;0.80;;
74967;SDS011;63523;51.880;12.630;2023-04-25T08:36:51;6.30;;;0.60;;
74967;SDS011;63523;51.880;12.630;2023-04-25T08:39:17;5.68;;;1.02;;
74967;SDS011;63523;51.880;12.630;2023-04-25T08:41:42;7.23;;;0.80;;
74967;SDS011;63523;51.880;12.630;2023-04-25T08:44:09;5.38;;;1.10;;
74967;SDS011;63523;51.880;12.630;2023-04-25T08:46:35;4.63;;;0.63;;
74967;SDS011;63523;51.880;12.630;2023-04-25T08:49:03;3.53;;;0.50;;
74967;SDS011;63523;51.880;12.630;2023-04-25T08:51:30;6.10;;;0.73;;
74967;SDS011;63523;51.880;12.630;2023-04-25T08:53:57;6.70;;;1.00;;
74967;SDS011;63523;51.880;12.630;2023-04-25T08:56:37;8.43;;;1.00;;
74967;SDS011;63523;51.880;12.630;2023-04-25T08:59:04;5.30;;;1.02;;
74967;SDS011;63523;51.880;12.630;2023-04-25T09:01:32;7.82;;;1.23;;
74967;SDS011;63523;51.880;12.630;2023-04-25T09:03:58;5.43;;;1.08;;
74967;SDS011;63523;51.880;12.630;2023-04-25T09:06:24;6.83;;;1.10;;
74967;SDS011;63523;51.880;12.630;2023-04-25T09:08:49;7.83;;;1.37;;
74967;SDS011;63523;51.880;12.630;2023-04-25T09:11:15;6.13;;;1.30;;
74967;SDS011;63523;51.880;12.630;2023-04-25T09:13:40;5.37;;;1.10;;
74967;SDS011;63523;51.880;12.630;2023-04-25T09:16:06;5.73;;;1.10;;
74967;SDS011;63523;51.880;12.630;2023-04-25T09:18:32;7.80;;;1.00;;
74967;SDS011;63523;51.880;12.630;2023-04-25T09:21:05;7.75;;;1.08;;
74967;SDS011;63523;51.880;12.630;2023-04-25T09:23:31;5.40;;;0.85;;
74967;SDS011;63523;51.880;12.630;2023-04-25T09:26:06;8.53;;;1.03;;
74967;SDS011;63523;51.880;12.630;2023-04-25T09:28:32;4.90;;;1.10;;
74967;SDS011;63523;51.880;12.630;2023-04-25T09:30:57;4.93;;;1.00;;
74967;SDS011;63523;51.880;12.630;2023-04-25T09:33:29;7.05;;;1.13;;
74967;SDS011;63523;51.880;12.630;2023-04-25T09:36:14;8.00;;;1.07;;
74967;SDS011;63523;51.880;12.630;2023-04-25T09:38:40;7.03;;;1.00;;
74967;SDS011;63523;51.880;12.630;2023-04-25T09:41:07;7.43;;;1.10;;
74967;SDS011;63523;51.880;12.630;2023-04-25T09:43:33;13.10;;;1.65;;
74967;SDS011;63523;51.880;12.630;2023-04-25T09:45:58;6.27;;;1.33;;
74967;SDS011;63523;51.880;12.630;2023-04-25T09:48:25;6.88;;;1.30;;
74967;SDS011;63523;51.880;12.630;2023-04-25T09:51:08;10.85;;;1.55;;
74967;SDS011;63523;51.880;12.630;2023-04-25T09:53:39;6.57;;;1.13;;
74967;SDS011;63523;51.880;12.630;2023-04-25T09:56:06;7.13;;;0.82;;
74967;SDS011;63523;51.880;12.630;2023-04-25T09:58:34;7.15;;;0.90;;
74967;SDS011;63523;51.880;12.630;2023-04-25T10:01:04;6.95;;;0.88;;
74967;SDS011;63523;51.880;12.630;2023-04-25T10:03:31;6.43;;;1.10;;
74967;SDS011;63523;51.880;12.630;2023-04-25T10:06:01;5.97;;;1.10;;
74967;SDS011;63523;51.880;12.630;2023-04-25T10:08:33;6.35;;;1.17;;
74967;SDS011;63523;51.880;12.630;2023-04-25T10:11:00;6.07;;;0.90;;
74967;SDS011;63523;51.880;12.630;2023-04-25T10:13:27;7.47;;;1.05;;
74967;SDS011;63523;51.880;12.630;2023-04-25T10:15:54;8.00;;;1.13;;
74967;SDS011;63523;51.880;12.630;2023-04-25T10:18:20;7.43;;;1.37;;
74967;SDS011;63523;51.880;12.630;2023-04-25T10:20:46;8.10;;;1.55;;
74967;SDS011;63523;51.880;12.630;2023-04-25T10:23:12;8.23;;;1.57;;
74967;SDS011;63523;51.880;12.630;2023-04-25T10:25:40;9.80;;;1.42;;
74967;SDS011;63523;51.880;12.630;2023-04-25T10:28:06;6.53;;;1.00;;
74967;SDS011;63523;51.880;12.630;2023-04-25T10:30:31;7.87;;;1.10;;
74967;SDS011;63523;51.880;12.630;2023-04-25T10:32:58;7.83;;;1.00;;
74967;SDS011;63523;51.880;12.630;2023-04-25T10:35:25;5.55;;;1.10;;
74967;SDS011;63523;51.880;12.630;2023-04-25T10:38:10;6.80;;;1.13;;
74967;SDS011;63523;51.880;12.630;2023-04-25T10:40:37;6.05;;;0.95;;
74967;SDS011;63523;51.880;12.630;2023-04-25T10:45:56;7.30;;;1.10;;
74967;SDS011;63523;51.880;12.630;2023-04-25T10:48:27;8.38;;;1.00;;
74967;SDS011;63523;51.880;12.630;2023-04-25T10:53:40;5.40;;;0.95;;
74967;SDS011;63523;51.880;12.630;2023-04-25T10:56:16;9.77;;;1.10;;
74967;SDS011;63523;51.880;12.630;2023-04-25T10:58:45;8.30;;;1.17;;
74967;SDS011;63523;51.880;12.630;2023-04-25T11:01:21;7.30;;;0.80;;
74967;SDS011;63523;51.880;12.630;2023-04-25T11:03:56;8.07;;;1.10;;
74967;SDS011;63523;51.880;12.630;2023-04-25T11:06:23;7.47;;;1.02;;
74967;SDS011;63523;51.880;12.630;2023-04-25T11:08:56;6.63;;;0.70;;
74967;SDS011;63523;51.880;12.630;2023-04-25T11:11:21;7.93;;;0.90;;
74967;SDS011;63523;51.880;12.630;2023-04-25T11:13:47;7.07;;;0.93;;
74967;SDS011;63523;51.880;12.630;2023-04-25T11:16:16;6.82;;;0.90;;
74967;SDS011;63523;51.880;12.630;2023-04-25T11:18:42;3.47;;;0.65;;
74967;SDS011;63523;51.880;12.630;2023-04-25T11:21:09;6.85;;;0.60;;
74967;SDS011;63523;51.880;12.630;2023-04-25T11:23:35;6.90;;;0.80;;
74967;SDS011;63523;51.880;12.630;2023-04-25T11:26:01;5.93;;;0.63;;
74967;SDS011;63523;51.880;12.630;2023-04-25T11:28:28;4.78;;;0.70;;
74967;SDS011;63523;51.880;12.630;2023-04-25T11:30:53;7.60;;;0.90;;
74967;SDS011;63523;51.880;12.630;2023-04-25T11:33:22;7.10;;;0.70;;
74967;SDS011;63523;51.880;12.630;2023-04-25T11:35:48;6.85;;;1.08;;
74967;SDS011;63523;51.880;12.630;2023-04-25T11:38:14;5.53;;;0.90;;
74967;SDS011;63523;51.880;12.630;2023-04-25T11:40:39;6.57;;;1.00;;
74967;SDS011;63523;51.880;12.630;2023-04-25T11:43:05;7.23;;;0.80;;
74967;SDS011;63523;51.880;12.630;2023-04-25T11:45:30;6.93;;;0.70;;
74967;SDS011;63523;51.880;12.630;2023-04-25T11:47:56;5.40;;;0.90;;
74967;SDS011;63523;51.880;12.630;2023-04-25T11:50:21;7.03;;;1.00;;
74967;SDS011;63523;51.880;12.630;2023-04-25T11:52:47;6.77;;;1.10;;
74967;SDS011;63523;51.880;12.630;2023-04-25T11:55:16;7.47;;;1.03;;
74967;SDS011;63523;51.880;12.630;2023-04-25T11:57:44;6.20;;;0.70;;
74967;SDS011;63523;51.880;12.630;2023-04-25T12:02:40;6.78;;;0.80;;
74967;SDS011;63523;51.880;12.630;2023-04-25T12:05:07;5.40;;;0.68;;
74967;SDS011;63523;51.880;12.630;2023-04-25T12:07:33;6.63;;;0.70;;
74967;SDS011;63523;51.880;12.630;2023-04-25T12:09:59;8.02;;;0.90;;
74967;SDS011;63523;51.880;12.630;2023-04-25T12:12:27;7.00;;;0.97;;
74967;SDS011;63523;51.880;12.630;2023-04-25T12:15:07;5.85;;;0.70;;
74967;SDS011;63523;51.880;12.630;2023-04-25T12:17:37;7.15;;;0.82;;
74967;SDS011;63523;51.880;12.630;2023-04-25T12:20:07;6.20;;;0.70;;
74967;SDS011;63523;51.880;12.630;2023-04-25T12:22:37;5.03;;;0.70;;
74967;SDS011;63523;51.880;12.630;2023-04-25T12:25:09;5.47;;;0.80;;
74967;SDS011;63523;51.880;12.630;2023-04-25T12:27:35;3.90;;;0.65;;
74967;SDS011;63523;51.880;12.630;2023-04-25T12:30:00;8.73;;;1.00;;
74967;SDS011;63523;51.880;12.630;2023-04-25T12:32:26;6.03;;;0.90;;
74967;SDS011;63523;51.880;12.630;2023-04-25T12:34:52;5.53;;;0.80;;
74967;SDS011;63523;51.880;12.630;2023-04-25T12:37:17;6.87;;;0.90;;
74967;SDS011;63523;51.880;12.630;2023-04-25T12:39:42;7.67;;;0.93;;
74967;SDS011;63523;51.880;12.630;2023-04-25T12:42:08;6.03;;;1.20;;
74967;SDS011;63523;51.880;12.630;2023-04-25T12:44:36;4.05;;;0.40;;
74967;SDS011;63523;51.880;12.630;2023-04-25T12:47:01;6.20;;;0.82;;
74967;SDS011;63523;51.880;12.630;2023-04-25T12:49:27;5.57;;;0.60;;
74967;SDS011;63523;51.880;12.630;2023-04-25T12:51:53;6.93;;;0.60;;
74967;SDS011;63523;51.880;12.630;2023-04-25T12:54:18;6.00;;;0.97;;
74967;SDS011;63523;51.880;12.630;2023-04-25T12:56:43;5.90;;;0.90;;
74967;SDS011;63523;51.880;12.630;2023-04-25T12:59:09;6.03;;;0.60;;
74967;SDS011;63523;51.880;12.630;2023-04-25T13:01:34;5.80;;;0.80;;
74967;SDS011;63523;51.880;12.630;2023-04-25T13:03:59;5.43;;;0.87;;
74967;SDS011;63523;51.880;12.630;2023-04-25T13:06:25;6.43;;;0.80;;
74967;SDS011;63523;51.880;12.630;2023-04-25T13:08:51;6.03;;;0.70;;
74967;SDS011;63523;51.880;12.630;2023-04-25T13:11:16;6.53;;;0.77;;
74967;SDS011;63523;51.880;12.630;2023-04-25T13:13:41;8.87;;;1.00;;
74967;SDS011;63523;51.880;12.630;2023-04-25T13:16:07;8.05;;;1.00;;
74967;SDS011;63523;51.880;12.630;2023-04-25T13:18:33;5.07;;;0.77;;
74967;SDS011;63523;51.880;12.630;2023-04-25T13:20:59;7.88;;;0.70;;
74967;SDS011;63523;51.880;12.630;2023-04-25T13:23:25;5.30;;;0.43;;
74967;SDS011;63523;51.880;12.630;2023-04-25T13:25:51;3.65;;;0.70;;
74967;SDS011;63523;51.880;12.630;2023-04-25T13:28:17;6.45;;;0.80;;
74967;SDS011;63523;51.880;12.630;2023-04-25T13:30:42;4.87;;;0.60;;
74967;SDS011;63523;51.880;12.630;2023-04-25T13:33:08;5.57;;;0.50;;
74967;SDS011;63523;51.880;12.630;2023-04-25T13:35:34;5.33;;;0.40;;
74967;SDS011;63523;51.880;12.630;2023-04-25T13:38:00;5.78;;;0.60;;
74967;SDS011;63523;51.880;12.630;2023-04-25T13:40:25;5.80;;;0.50;;
74967;SDS011;63523;51.880;12.630;2023-04-25T13:42:51;6.13;;;0.60;;
74967;SDS011;63523;51.880;12.630;2023-04-25T13:45:17;3.67;;;0.60;;
74967;SDS011;63523;51.880;12.630;2023-04-25T13:47:42;4.23;;;0.43;;
74967;SDS011;63523;51.880;12.630;2023-04-25T13:50:08;5.07;;;0.70;;
74967;SDS011;63523;51.880;12.630;2023-04-25T13:52:34;5.18;;;0.70;;
74967;SDS011;63523;51.880;12.630;2023-04-25T13:54:59;4.33;;;0.77;;
74967;SDS011;63523;51.880;12.630;2023-04-25T13:57:26;5.93;;;0.60;;
74967;SDS011;63523;51.880;12.630;2023-04-25T13:59:51;3.53;;;0.60;;
74967;SDS011;63523;51.880;12.630;2023-04-25T14:02:18;6.68;;;0.80;;
74967;SDS011;63523;51.880;12.630;2023-04-25T14:04:44;5.70;;;0.73;;
74967;SDS011;63523;51.880;12.630;2023-04-25T14:07:09;5.55;;;0.60;;
74967;SDS011;63523;51.880;12.630;2023-04-25T14:09:36;6.22;;;0.95;;
74967;SDS011;63523;51.880;12.630;2023-04-25T14:12:01;5.43;;;0.80;;
74967;SDS011;63523;51.880;12.630;2023-04-25T14:14:27;4.07;;;0.57;;
74967;SDS011;63523;51.880;12.630;2023-04-25T14:16:52;4.93;;;0.90;;
74967;SDS011;63523;51.880;12.630;2023-04-25T14:19:19;5.30;;;1.13;;
74967;SDS011;63523;51.880;12.630;2023-04-25T14:21:45;3.58;;;0.60;;
74967;SDS011;63523;51.880;12.630;2023-04-25T14:24:11;3.60;;;0.90;;
74967;SDS011;63523;51.880;12.630;2023-04-25T14:26:37;6.45;;;0.68;;
74967;SDS011;63523;51.880;12.630;2023-04-25T14:29:03;6.10;;;1.00;;
74967;SDS011;63523;51.880;12.630;2023-04-25T14:31:30;5.82;;;0.60;;
74967;SDS011;63523;51.880;12.630;2023-04-25T14:33:56;5.73;;;0.40;;
74967;SDS011;63523;51.880;12.630;2023-04-25T14:36:21;5.90;;;0.70;;